sensor_id;sensor_type;location;lat;lon;timestamp;temperature;humidity
67722;SHT31;58309;45.292;11.820;2023-01-06T00:01:05;5.71;99.99
67722;SHT31;58309;45.292;11.820;2023-01-06T00:03:31;5.75;99.99
67722;SHT31;58309;45.292;11.820;2023-01-06T00:06:01;5.55;99.99
67722;SHT31;58309;45.292;11.820;2023-01-06T00:08:28;5.52;99.99
67722;SHT31;58309;45.292;11.820;2023-01-06T00:10:53;5.59;99.99
67722;SHT31;58309;45.292;11.820;2023-01-06T00:13:19;5.57;99.99
67722;SHT31;58309;45.292;11.820;2023-01-06T00:15:45;5.44;99.99
67722;SHT31;58309;45.292;11.820;2023-01-06T00:18:11;5.33;99.99
67722;SHT31;58309;45.292;11.820;2023-01-06T00:20:36;5.33;99.99
67722;SHT31;58309;45.292;11.820;2023-01-06T00:23:02;5.27;99.99
67722;SHT31;58309;45.292;11.820;2023-01-06T00:25:28;5.23;99.99
67722;SHT31;58309;45.292;11.820;2023-01-06T00:27:54;5.13;99.99
67722;SHT31;58309;45.292;11.820;2023-01-06T00:30:20;5.07;99.99
67722;SHT31;58309;45.292;11.820;2023-01-06T00:32:45;4.99;99.99
67722;SHT31;58309;45.292;11.820;2023-01-06T00:35:11;4.93;99.99
67722;SHT31;58309;45.292;11.820;2023-01-06T00:37:36;4.80;99.99
67722;SHT31;58309;45.292;11.820;2023-01-06T00:40:02;4.71;99.99
67722;SHT31;58309;45.292;11.820;2023-01-06T00:42:27;4.49;99.99
67722;SHT31;58309;45.292;11.820;2023-01-06T00:44:53;4.40;99.99
67722;SHT31;58309;45.292;11.820;2023-01-06T00:47:18;4.45;99.99
67722;SHT31;58309;45.292;11.820;2023-01-06T00:49:44;4.54;99.99
67722;SHT31;58309;45.292;11.820;2023-01-06T00:52:10;4.58;99.99
67722;SHT31;58309;45.292;11.820;2023-01-06T00:54:35;4.56;99.99
67722;SHT31;58309;45.292;11.820;2023-01-06T00:57:01;4.56;99.99
67722;SHT31;58309;45.292;11.820;2023-01-06T00:59:27;4.62;99.99
67722;SHT31;58309;45.292;11.820;2023-01-06T01:01:55;4.64;99.99
67722;SHT31;58309;45.292;11.820;2023-01-06T01:04:22;4.54;99.99
67722;SHT31;58309;45.292;11.820;2023-01-06T01:06:49;4.44;99.99
67722;SHT31;58309;45.292;11.820;2023-01-06T01:09:23;4.37;99.99
67722;SHT31;58309;45.292;11.820;2023-01-06T01:11:49;4.30;99.99
67722;SHT31;58309;45.292;11.820;2023-01-06T01:17:06;4.30;99.99
67722;SHT31;58309;45.292;11.820;2023-01-06T01:19:32;4.20;99.99
67722;SHT31;58309;45.292;11.820;2023-01-06T01:21:57;4.17;99.99
67722;SHT31;58309;45.292;11.820;2023-01-06T01:24:23;4.18;99.99
67722;SHT31;58309;45.292;11.820;2023-01-06T01:26:49;4.04;99.99
67722;SHT31;58309;45.292;11.820;2023-01-06T01:29:16;4.13;99.99
67722;SHT31;58309;45.292;11.820;2023-01-06T01:31:42;4.13;99.99
67722;SHT31;58309;45.292;11.820;2023-01-06T01:34:09;4.16;99.99
67722;SHT31;58309;45.292;11.820;2023-01-06T01:36:35;4.14;99.99
67722;SHT31;58309;45.292;11.820;2023-01-06T01:39:00;4.24;99.99
67722;SHT31;58309;45.292;11.820;2023-01-06T01:41:27;4.31;99.99
67722;SHT31;58309;45.292;11.820;2023-01-06T01:46:38;4.35;99.99
67722;SHT31;58309;45.292;11.820;2023-01-06T01:49:17;4.34;99.99
67722;SHT31;58309;45.292;11.820;2023-01-06T01:51:45;4.28;99.99
67722;SHT31;58309;45.292;11.820;2023-01-06T01:54:18;4.25;99.99
67722;SHT31;58309;45.292;11.820;2023-01-06T01:56:50;4.10;99.99
67722;SHT31;58309;45.292;11.820;2023-01-06T01:59:22;4.00;99.99
67722;SHT31;58309;45.292;11.820;2023-01-06T02:01:48;4.07;99.99
67722;SHT31;58309;45.292;11.820;2023-01-06T02:04:14;4.08;99.99
67722;SHT31;58309;45.292;11.820;2023-01-06T02:06:41;4.11;99.99
67722;SHT31;58309;45.292;11.820;2023-01-06T02:09:11;4.20;99.99
67722;SHT31;58309;45.292;11.820;2023-01-06T02:11:39;4.30;99.99
67722;SHT31;58309;45.292;11.820;2023-01-06T02:27:55;4.14;99.99
67722;SHT31;58309;45.292;11.820;2023-01-06T02:33:30;3.90;99.99
67722;SHT31;58309;45.292;11.820;2023-01-06T02:44:24;3.40;99.99
67722;SHT31;58309;45.292;11.820;2023-01-06T02:47:11;3.45;99.99
67722;SHT31;58309;45.292;11.820;2023-01-06T03:00:44;3.24;99.99
67722;SHT31;58309;45.292;11.820;2023-01-06T03:03:15;3.05;99.99
67722;SHT31;58309;45.292;11.820;2023-01-06T03:05:44;3.04;99.99
67722;SHT31;58309;45.292;11.820;2023-01-06T03:08:14;3.00;99.99
67722;SHT31;58309;45.292;11.820;2023-01-06T03:10:43;2.98;99.99
67722;SHT31;58309;45.292;11.820;2023-01-06T03:13:20;3.08;99.99
67722;SHT31;58309;45.292;11.820;2023-01-06T03:15:47;3.14;99.99
67722;SHT31;58309;45.292;11.820;2023-01-06T03:18:14;3.26;99.99
67722;SHT31;58309;45.292;11.820;2023-01-06T03:20:40;3.39;99.99
67722;SHT31;58309;45.292;11.820;2023-01-06T03:23:05;3.40;99.99
67722;SHT31;58309;45.292;11.820;2023-01-06T03:25:31;3.45;99.99
67722;SHT31;58309;45.292;11.820;2023-01-06T03:27:57;3.52;99.99
67722;SHT31;58309;45.292;11.820;2023-01-06T03:30:24;3.55;99.99
67722;SHT31;58309;45.292;11.820;2023-01-06T03:33:06;3.60;99.99
67722;SHT31;58309;45.292;11.820;2023-01-06T03:38:38;3.83;99.99
67722;SHT31;58309;45.292;11.820;2023-01-06T03:48:55;4.25;99.99
67722;SHT31;58309;45.292;11.820;2023-01-06T03:59:29;4.44;99.99
67722;SHT31;58309;45.292;11.820;2023-01-06T04:01:58;4.48;99.99
67722;SHT31;58309;45.292;11.820;2023-01-06T04:04:24;4.58;99.99
67722;SHT31;58309;45.292;11.820;2023-01-06T04:06:49;4.65;99.99
67722;SHT31;58309;45.292;11.820;2023-01-06T04:09:15;4.73;99.99
67722;SHT31;58309;45.292;11.820;2023-01-06T04:11:41;4.83;99.99
67722;SHT31;58309;45.292;11.820;2023-01-06T04:14:24;4.90;99.99
67722;SHT31;58309;45.292;11.820;2023-01-06T04:16:50;4.99;99.99
67722;SHT31;58309;45.292;11.820;2023-01-06T04:19:15;5.05;99.99
67722;SHT31;58309;45.292;11.820;2023-01-06T04:21:41;5.13;99.99
67722;SHT31;58309;45.292;11.820;2023-01-06T04:24:07;5.19;99.99
67722;SHT31;58309;45.292;11.820;2023-01-06T04:26:32;5.27;99.99
67722;SHT31;58309;45.292;11.820;2023-01-06T04:28:59;5.27;99.99
67722;SHT31;58309;45.292;11.820;2023-01-06T04:31:25;5.30;99.99
67722;SHT31;58309;45.292;11.820;2023-01-06T04:33:50;5.34;99.99
67722;SHT31;58309;45.292;11.820;2023-01-06T04:36:16;5.37;99.99
67722;SHT31;58309;45.292;11.820;2023-01-06T04:38:41;5.41;99.99
67722;SHT31;58309;45.292;11.820;2023-01-06T04:41:07;5.43;99.99
67722;SHT31;58309;45.292;11.820;2023-01-06T04:43:33;5.46;99.99
67722;SHT31;58309;45.292;11.820;2023-01-06T04:45:58;5.47;99.99
67722;SHT31;58309;45.292;11.820;2023-01-06T04:48:24;5.55;99.99
67722;SHT31;58309;45.292;11.820;2023-01-06T04:51:02;5.54;99.99
67722;SHT31;58309;45.292;11.820;2023-01-06T04:53:27;5.55;99.99
67722;SHT31;58309;45.292;11.820;2023-01-06T04:55:53;5.59;99.99
67722;SHT31;58309;45.292;11.820;2023-01-06T04:58:18;5.51;99.99
67722;SHT31;58309;45.292;11.820;2023-01-06T05:00:44;5.57;99.99
67722;SHT31;58309;45.292;11.820;2023-01-06T05:03:09;5.58;99.99
67722;SHT31;58309;45.292;11.820;2023-01-06T05:05:35;5.68;99.99
67722;SHT31;58309;45.292;11.820;2023-01-06T05:08:02;5.71;99.99
67722;SHT31;58309;45.292;11.820;2023-01-06T05:10:27;5.74;99.99
67722;SHT31;58309;45.292;11.820;2023-01-06T05:12:53;5.81;99.99
67722;SHT31;58309;45.292;11.820;2023-01-06T05:15:18;5.87;99.99
67722;SHT31;58309;45.292;11.820;2023-01-06T05:17:44;5.88;99.99
67722;SHT31;58309;45.292;11.820;2023-01-06T05:20:10;5.94;99.99
67722;SHT31;58309;45.292;11.820;2023-01-06T05:22:35;5.94;99.99
67722;SHT31;58309;45.292;11.820;2023-01-06T05:25:01;5.91;99.99
67722;SHT31;58309;45.292;11.820;2023-01-06T05:27:26;5.85;99.99
67722;SHT31;58309;45.292;11.820;2023-01-06T05:29:52;5.79;99.99
67722;SHT31;58309;45.292;11.820;2023-01-06T05:32:17;5.78;99.99
67722;SHT31;58309;45.292;11.820;2023-01-06T05:34:43;5.81;99.99
67722;SHT31;58309;45.292;11.820;2023-01-06T05:37:08;5.85;99.99
67722;SHT31;58309;45.292;11.820;2023-01-06T05:39:34;5.87;99.99
67722;SHT31;58309;45.292;11.820;2023-01-06T05:41:59;5.94;99.99
67722;SHT31;58309;45.292;11.820;2023-01-06T05:44:25;5.96;99.99
67722;SHT31;58309;45.292;11.820;2023-01-06T05:46:50;6.02;99.99
67722;SHT31;58309;45.292;11.820;2023-01-06T05:49:16;6.03;99.99
67722;SHT31;58309;45.292;11.820;2023-01-06T05:51:41;6.05;99.99
67722;SHT31;58309;45.292;11.820;2023-01-06T05:54:07;6.08;99.99
67722;SHT31;58309;45.292;11.820;2023-01-06T05:56:33;6.10;99.99
67722;SHT31;58309;45.292;11.820;2023-01-06T05:58:59;6.13;99.99
67722;SHT31;58309;45.292;11.820;2023-01-06T06:01:29;6.18;99.99
67722;SHT31;58309;45.292;11.820;2023-01-06T06:03:55;6.20;99.99
67722;SHT31;58309;45.292;11.820;2023-01-06T06:06:23;6.26;99.99
67722;SHT31;58309;45.292;11.820;2023-01-06T06:08:49;6.26;99.99
67722;SHT31;58309;45.292;11.820;2023-01-06T06:11:16;6.25;99.99
67722;SHT31;58309;45.292;11.820;2023-01-06T06:13:50;6.25;99.99
67722;SHT31;58309;45.292;11.820;2023-01-06T06:16:18;6.28;99.99
67722;SHT31;58309;45.292;11.820;2023-01-06T06:18:48;6.29;99.99
67722;SHT31;58309;45.292;11.820;2023-01-06T06:21:16;6.30;99.99
67722;SHT31;58309;45.292;11.820;2023-01-06T06:23:42;6.34;99.99
67722;SHT31;58309;45.292;11.820;2023-01-06T06:26:08;6.39;99.99
67722;SHT31;58309;45.292;11.820;2023-01-06T06:28:35;6.39;99.99
67722;SHT31;58309;45.292;11.820;2023-01-06T06:31:06;6.43;99.99
67722;SHT31;58309;45.292;11.820;2023-01-06T06:33:31;6.47;99.99
67722;SHT31;58309;45.292;11.820;2023-01-06T06:35:58;6.46;99.99
67722;SHT31;58309;45.292;11.820;2023-01-06T06:38:24;6.44;99.99
67722;SHT31;58309;45.292;11.820;2023-01-06T06:40:50;6.50;99.99
67722;SHT31;58309;45.292;11.820;2023-01-06T06:43:15;6.57;99.99
67722;SHT31;58309;45.292;11.820;2023-01-06T06:45:45;6.58;99.99
67722;SHT31;58309;45.292;11.820;2023-01-06T06:48:10;6.61;99.99
67722;SHT31;58309;45.292;11.820;2023-01-06T06:50:36;6.68;99.99
67722;SHT31;58309;45.292;11.820;2023-01-06T06:53:01;6.71;99.99
67722;SHT31;58309;45.292;11.820;2023-01-06T06:55:27;6.73;99.99
67722;SHT31;58309;45.292;11.820;2023-01-06T06:57:52;6.80;99.99
67722;SHT31;58309;45.292;11.820;2023-01-06T07:00:18;6.83;99.99
67722;SHT31;58309;45.292;11.820;2023-01-06T07:02:47;6.81;99.99
67722;SHT31;58309;45.292;11.820;2023-01-06T07:05:14;6.81;99.99
67722;SHT31;58309;45.292;11.820;2023-01-06T07:07:39;6.80;99.99
67722;SHT31;58309;45.292;11.820;2023-01-06T07:10:05;6.83;99.99
67722;SHT31;58309;45.292;11.820;2023-01-06T07:12:31;6.84;99.99
67722;SHT31;58309;45.292;11.820;2023-01-06T07:14:56;6.90;99.99
67722;SHT31;58309;45.292;11.820;2023-01-06T07:17:26;6.90;99.99
67722;SHT31;58309;45.292;11.820;2023-01-06T07:19:52;6.94;99.99
67722;SHT31;58309;45.292;11.820;2023-01-06T07:22:18;6.97;99.99
67722;SHT31;58309;45.292;11.820;2023-01-06T07:24:43;6.98;99.99
67722;SHT31;58309;45.292;11.820;2023-01-06T07:27:09;6.99;99.99
67722;SHT31;58309;45.292;11.820;2023-01-06T07:29:35;7.02;99.99
67722;SHT31;58309;45.292;11.820;2023-01-06T07:32:00;7.08;99.99
67722;SHT31;58309;45.292;11.820;2023-01-06T07:34:26;7.15;99.99
67722;SHT31;58309;45.292;11.820;2023-01-06T07:36:51;7.15;99.99
67722;SHT31;58309;45.292;11.820;2023-01-06T07:39:17;7.21;99.99
67722;SHT31;58309;45.292;11.820;2023-01-06T07:41:42;7.26;99.99
67722;SHT31;58309;45.292;11.820;2023-01-06T07:44:08;7.29;99.99
67722;SHT31;58309;45.292;11.820;2023-01-06T07:46:33;7.32;99.99
67722;SHT31;58309;45.292;11.820;2023-01-06T07:48:59;7.35;99.99
67722;SHT31;58309;45.292;11.820;2023-01-06T07:51:24;7.36;99.99
67722;SHT31;58309;45.292;11.820;2023-01-06T07:53:50;7.42;99.99
67722;SHT31;58309;45.292;11.820;2023-01-06T07:56:15;7.48;99.99
67722;SHT31;58309;45.292;11.820;2023-01-06T07:58:41;7.53;99.99
67722;SHT31;58309;45.292;11.820;2023-01-06T08:01:07;7.58;99.99
67722;SHT31;58309;45.292;11.820;2023-01-06T08:03:33;7.62;99.99
67722;SHT31;58309;45.292;11.820;2023-01-06T08:05:59;7.66;99.99
67722;SHT31;58309;45.292;11.820;2023-01-06T08:08:24;7.71;99.99
67722;SHT31;58309;45.292;11.820;2023-01-06T08:10:50;7.79;99.99
67722;SHT31;58309;45.292;11.820;2023-01-06T08:13:15;7.81;99.99
67722;SHT31;58309;45.292;11.820;2023-01-06T08:15:41;7.86;99.99
67722;SHT31;58309;45.292;11.820;2023-01-06T08:18:07;7.93;99.99
67722;SHT31;58309;45.292;11.820;2023-01-06T08:20:33;7.97;99.99
67722;SHT31;58309;45.292;11.820;2023-01-06T08:23:00;8.02;99.99
67722;SHT31;58309;45.292;11.820;2023-01-06T08:25:26;8.05;99.85
67722;SHT31;58309;45.292;11.820;2023-01-06T08:27:51;8.10;99.76
67722;SHT31;58309;45.292;11.820;2023-01-06T08:30:17;8.15;99.50
67722;SHT31;58309;45.292;11.820;2023-01-06T08:32:49;8.18;98.89
67722;SHT31;58309;45.292;11.820;2023-01-06T08:35:14;8.24;97.84
67722;SHT31;58309;45.292;11.820;2023-01-06T08:37:40;8.28;98.29
67722;SHT31;58309;45.292;11.820;2023-01-06T08:40:06;8.30;98.58
67722;SHT31;58309;45.292;11.820;2023-01-06T08:42:32;8.38;98.23
67722;SHT31;58309;45.292;11.820;2023-01-06T08:44:57;8.38;98.32
67722;SHT31;58309;45.292;11.820;2023-01-06T08:47:23;8.45;98.01
67722;SHT31;58309;45.292;11.820;2023-01-06T08:49:48;8.46;97.93
67722;SHT31;58309;45.292;11.820;2023-01-06T08:52:14;8.49;97.53
67722;SHT31;58309;45.292;11.820;2023-01-06T08:54:39;8.55;97.63
67722;SHT31;58309;45.292;11.820;2023-01-06T08:57:05;8.52;97.29
67722;SHT31;58309;45.292;11.820;2023-01-06T08:59:32;8.59;97.25
67722;SHT31;58309;45.292;11.820;2023-01-06T09:01:58;8.63;98.00
67722;SHT31;58309;45.292;11.820;2023-01-06T09:04:23;8.68;97.69
67722;SHT31;58309;45.292;11.820;2023-01-06T09:06:49;8.72;97.63
67722;SHT31;58309;45.292;11.820;2023-01-06T09:09:14;8.72;97.46
67722;SHT31;58309;45.292;11.820;2023-01-06T09:11:41;8.82;97.59
67722;SHT31;58309;45.292;11.820;2023-01-06T09:14:08;8.84;97.81
67722;SHT31;58309;45.292;11.820;2023-01-06T09:16:34;8.84;97.24
67722;SHT31;58309;45.292;11.820;2023-01-06T09:19:00;8.84;97.16
67722;SHT31;58309;45.292;11.820;2023-01-06T09:21:25;8.93;97.32
67722;SHT31;58309;45.292;11.820;2023-01-06T09:23:51;8.96;96.18
67722;SHT31;58309;45.292;11.820;2023-01-06T09:26:18;9.04;95.99
67722;SHT31;58309;45.292;11.820;2023-01-06T09:28:46;9.03;95.65
67722;SHT31;58309;45.292;11.820;2023-01-06T09:31:11;9.07;95.53
67722;SHT31;58309;45.292;11.820;2023-01-06T09:33:37;9.01;95.67
67722;SHT31;58309;45.292;11.820;2023-01-06T09:36:03;9.00;94.87
67722;SHT31;58309;45.292;11.820;2023-01-06T09:38:31;8.96;95.10
67722;SHT31;58309;45.292;11.820;2023-01-06T09:41:00;8.90;94.90
67722;SHT31;58309;45.292;11.820;2023-01-06T09:44:00;8.99;95.08
67722;SHT31;58309;45.292;11.820;2023-01-06T09:46:31;8.93;94.21
67722;SHT31;58309;45.292;11.820;2023-01-06T09:52:18;9.03;94.47
67722;SHT31;58309;45.292;11.820;2023-01-06T09:54:53;9.03;94.43
67722;SHT31;58309;45.292;11.820;2023-01-06T09:57:35;9.07;94.93
67722;SHT31;58309;45.292;11.820;2023-01-06T10:00:06;9.14;95.01
67722;SHT31;58309;45.292;11.820;2023-01-06T10:02:36;9.14;94.41
67722;SHT31;58309;45.292;11.820;2023-01-06T10:05:31;9.20;94.54
67722;SHT31;58309;45.292;11.820;2023-01-06T10:08:12;9.23;93.74
67722;SHT31;58309;45.292;11.820;2023-01-06T10:10:51;9.21;94.59
67722;SHT31;58309;45.292;11.820;2023-01-06T10:23:50;9.45;94.72
67722;SHT31;58309;45.292;11.820;2023-01-06T10:26:31;9.57;94.21
67722;SHT31;58309;45.292;11.820;2023-01-06T10:29:17;9.64;94.03
67722;SHT31;58309;45.292;11.820;2023-01-06T10:31:44;9.77;94.22
67722;SHT31;58309;45.292;11.820;2023-01-06T10:34:19;9.78;91.94
67722;SHT31;58309;45.292;11.820;2023-01-06T10:36:49;9.81;91.05
67722;SHT31;58309;45.292;11.820;2023-01-06T10:39:19;9.91;91.40
67722;SHT31;58309;45.292;11.820;2023-01-06T10:44:17;9.98;90.72
67722;SHT31;58309;45.292;11.820;2023-01-06T10:46:42;10.05;90.24
67722;SHT31;58309;45.292;11.820;2023-01-06T10:49:15;10.17;90.58
67722;SHT31;58309;45.292;11.820;2023-01-06T10:51:42;10.06;90.18
67722;SHT31;58309;45.292;11.820;2023-01-06T10:54:15;10.01;90.29
67722;SHT31;58309;45.292;11.820;2023-01-06T10:56:45;10.09;89.81
67722;SHT31;58309;45.292;11.820;2023-01-06T10:59:12;10.09;89.84
67722;SHT31;58309;45.292;11.820;2023-01-06T11:01:53;10.22;89.44
67722;SHT31;58309;45.292;11.820;2023-01-06T11:04:20;10.16;89.68
67722;SHT31;58309;45.292;11.820;2023-01-06T11:06:55;10.17;89.16
67722;SHT31;58309;45.292;11.820;2023-01-06T11:12:22;10.08;89.62
67722;SHT31;58309;45.292;11.820;2023-01-06T11:17:20;10.34;87.98
67722;SHT31;58309;45.292;11.820;2023-01-06T11:22:35;10.33;88.57
67722;SHT31;58309;45.292;11.820;2023-01-06T11:25:01;10.34;87.84
67722;SHT31;58309;45.292;11.820;2023-01-06T11:27:27;10.40;88.22
67722;SHT31;58309;45.292;11.820;2023-01-06T11:29:53;10.46;88.05
67722;SHT31;58309;45.292;11.820;2023-01-06T11:32:26;10.57;89.15
67722;SHT31;58309;45.292;11.820;2023-01-06T11:34:58;10.67;87.37
67722;SHT31;58309;45.292;11.820;2023-01-06T11:37:40;10.81;87.64
67722;SHT31;58309;45.292;11.820;2023-01-06T11:40:33;10.65;86.95
67722;SHT31;58309;45.292;11.820;2023-01-06T11:43:22;10.71;86.47
67722;SHT31;58309;45.292;11.820;2023-01-06T11:46:01;10.59;86.67
67722;SHT31;58309;45.292;11.820;2023-01-06T11:48:34;10.49;87.46
67722;SHT31;58309;45.292;11.820;2023-01-06T11:51:05;10.50;88.98
67722;SHT31;58309;45.292;11.820;2023-01-06T11:53:33;10.71;88.15
67722;SHT31;58309;45.292;11.820;2023-01-06T12:03:50;11.02;85.42
67722;SHT31;58309;45.292;11.820;2023-01-06T12:08:59;11.00;86.51
67722;SHT31;58309;45.292;11.820;2023-01-06T12:11:43;10.90;85.33
67722;SHT31;58309;45.292;11.820;2023-01-06T12:14:19;10.95;86.30
67722;SHT31;58309;45.292;11.820;2023-01-06T12:19:41;11.07;85.96
67722;SHT31;58309;45.292;11.820;2023-01-06T12:24:57;11.08;85.05
67722;SHT31;58309;45.292;11.820;2023-01-06T12:27:34;11.15;85.14
67722;SHT31;58309;45.292;11.820;2023-01-06T12:30:06;11.11;84.52
67722;SHT31;58309;45.292;11.820;2023-01-06T12:32:42;11.16;84.04
67722;SHT31;58309;45.292;11.820;2023-01-06T12:35:14;11.18;84.81
67722;SHT31;58309;45.292;11.820;2023-01-06T12:37:49;11.25;84.24
67722;SHT31;58309;45.292;11.820;2023-01-06T12:45:35;11.19;82.97
67722;SHT31;58309;45.292;11.820;2023-01-06T12:48:12;11.18;84.06
67722;SHT31;58309;45.292;11.820;2023-01-06T12:50:48;11.10;83.14
67722;SHT31;58309;45.292;11.820;2023-01-06T12:55:59;11.26;83.44
67722;SHT31;58309;45.292;11.820;2023-01-06T13:01:19;11.22;82.98
67722;SHT31;58309;45.292;11.820;2023-01-06T13:03:50;11.23;82.99
67722;SHT31;58309;45.292;11.820;2023-01-06T13:06:51;11.25;83.50
67722;SHT31;58309;45.292;11.820;2023-01-06T13:09:58;11.18;82.98
67722;SHT31;58309;45.292;11.820;2023-01-06T13:15:20;11.14;82.35
67722;SHT31;58309;45.292;11.820;2023-01-06T13:31:38;11.12;83.16
67722;SHT31;58309;45.292;11.820;2023-01-06T13:37:26;11.10;83.92
67722;SHT31;58309;45.292;11.820;2023-01-06T13:40:07;11.04;83.90
67722;SHT31;58309;45.292;11.820;2023-01-06T13:42:41;10.97;83.54
67722;SHT31;58309;45.292;11.820;2023-01-06T13:45:30;10.98;83.51
67722;SHT31;58309;45.292;11.820;2023-01-06T13:47:57;10.98;85.58
67722;SHT31;58309;45.292;11.820;2023-01-06T13:50:25;10.94;83.95
67722;SHT31;58309;45.292;11.820;2023-01-06T13:52:52;10.87;83.63
67722;SHT31;58309;45.292;11.820;2023-01-06T13:57:44;10.95;83.69
67722;SHT31;58309;45.292;11.820;2023-01-06T14:05:05;10.91;84.85
67722;SHT31;58309;45.292;11.820;2023-01-06T14:07:35;10.90;84.10
67722;SHT31;58309;45.292;11.820;2023-01-06T14:10:05;10.91;84.93
67722;SHT31;58309;45.292;11.820;2023-01-06T14:12:33;10.88;85.71
67722;SHT31;58309;45.292;11.820;2023-01-06T14:15:04;10.87;85.53
67722;SHT31;58309;45.292;11.820;2023-01-06T14:17:40;10.87;85.51
67722;SHT31;58309;45.292;11.820;2023-01-06T14:20:33;10.84;85.47
67722;SHT31;58309;45.292;11.820;2023-01-06T14:23:04;10.81;85.64
67722;SHT31;58309;45.292;11.820;2023-01-06T14:25:37;10.77;85.20
67722;SHT31;58309;45.292;11.820;2023-01-06T14:28:06;10.75;85.03
67722;SHT31;58309;45.292;11.820;2023-01-06T14:30:35;10.71;85.63
67722;SHT31;58309;45.292;11.820;2023-01-06T14:35:39;10.68;86.67
67722;SHT31;58309;45.292;11.820;2023-01-06T14:38:20;10.60;86.31
67722;SHT31;58309;45.292;11.820;2023-01-06T14:43:54;10.53;85.77
67722;SHT31;58309;45.292;11.820;2023-01-06T14:46:29;10.49;86.23
67722;SHT31;58309;45.292;11.820;2023-01-06T14:49:05;10.43;86.60
67722;SHT31;58309;45.292;11.820;2023-01-06T14:51:32;10.39;87.09
67722;SHT31;58309;45.292;11.820;2023-01-06T14:54:05;10.37;87.06
67722;SHT31;58309;45.292;11.820;2023-01-06T14:56:36;10.33;87.86
67722;SHT31;58309;45.292;11.820;2023-01-06T14:59:12;10.26;87.50
67722;SHT31;58309;45.292;11.820;2023-01-06T15:01:41;10.20;87.24
67722;SHT31;58309;45.292;11.820;2023-01-06T15:04:23;10.17;87.68
67722;SHT31;58309;45.292;11.820;2023-01-06T15:07:16;10.16;88.08
67722;SHT31;58309;45.292;11.820;2023-01-06T15:09:43;10.09;88.95
67722;SHT31;58309;45.292;11.820;2023-01-06T15:12:27;10.08;88.77
67722;SHT31;58309;45.292;11.820;2023-01-06T15:14:53;10.03;89.01
67722;SHT31;58309;45.292;11.820;2023-01-06T15:17:20;10.01;88.99
67722;SHT31;58309;45.292;11.820;2023-01-06T15:19:47;9.98;89.16
67722;SHT31;58309;45.292;11.820;2023-01-06T15:22:19;9.95;89.46
67722;SHT31;58309;45.292;11.820;2023-01-06T15:24:46;9.89;89.06
67722;SHT31;58309;45.292;11.820;2023-01-06T15:27:14;9.86;88.60
67722;SHT31;58309;45.292;11.820;2023-01-06T15:29:52;9.83;88.98
67722;SHT31;58309;45.292;11.820;2023-01-06T15:32:19;9.81;88.16
67722;SHT31;58309;45.292;11.820;2023-01-06T15:34:46;9.79;87.65
67722;SHT31;58309;45.292;11.820;2023-01-06T15:37:17;9.79;88.30
67722;SHT31;58309;45.292;11.820;2023-01-06T15:39:43;9.77;87.79
67722;SHT31;58309;45.292;11.820;2023-01-06T15:42:11;9.77;87.63
67722;SHT31;58309;45.292;11.820;2023-01-06T15:44:38;9.72;88.20
67722;SHT31;58309;45.292;11.820;2023-01-06T15:49:38;9.70;88.37
67722;SHT31;58309;45.292;11.820;2023-01-06T15:52:06;9.67;88.48
67722;SHT31;58309;45.292;11.820;2023-01-06T15:54:34;9.64;88.38
67722;SHT31;58309;45.292;11.820;2023-01-06T15:57:02;9.64;89.07
67722;SHT31;58309;45.292;11.820;2023-01-06T15:59:28;9.64;89.82
67722;SHT31;58309;45.292;11.820;2023-01-06T16:01:55;9.58;89.37
67722;SHT31;58309;45.292;11.820;2023-01-06T16:04:22;9.57;89.75
67722;SHT31;58309;45.292;11.820;2023-01-06T16:06:48;9.54;89.77
67722;SHT31;58309;45.292;11.820;2023-01-06T16:16:50;9.52;88.45
67722;SHT31;58309;45.292;11.820;2023-01-06T16:19:19;9.51;89.16
67722;SHT31;58309;45.292;11.820;2023-01-06T16:21:45;9.52;88.82
67722;SHT31;58309;45.292;11.820;2023-01-06T16:24:20;9.52;89.14
67722;SHT31;58309;45.292;11.820;2023-01-06T16:27:00;9.52;89.58
67722;SHT31;58309;45.292;11.820;2023-01-06T16:29:37;9.50;89.45
67722;SHT31;58309;45.292;11.820;2023-01-06T16:32:29;9.50;90.28
67722;SHT31;58309;45.292;11.820;2023-01-06T16:35:00;9.48;90.53
67722;SHT31;58309;45.292;11.820;2023-01-06T16:37:26;9.48;90.05
67722;SHT31;58309;45.292;11.820;2023-01-06T16:39:58;9.42;90.44
67722;SHT31;58309;45.292;11.820;2023-01-06T16:42:32;9.41;90.78
67722;SHT31;58309;45.292;11.820;2023-01-06T16:45:18;9.40;91.07
67722;SHT31;58309;45.292;11.820;2023-01-06T16:47:47;9.35;91.05
67722;SHT31;58309;45.292;11.820;2023-01-06T16:52:49;9.33;91.34
67722;SHT31;58309;45.292;11.820;2023-01-06T16:55:17;9.33;91.31
67722;SHT31;58309;45.292;11.820;2023-01-06T16:57:48;9.37;90.33
67722;SHT31;58309;45.292;11.820;2023-01-06T17:00:17;9.35;90.32
67722;SHT31;58309;45.292;11.820;2023-01-06T17:02:44;9.37;89.95
67722;SHT31;58309;45.292;11.820;2023-01-06T17:05:22;9.38;90.39
67722;SHT31;58309;45.292;11.820;2023-01-06T17:07:48;9.33;90.69
67722;SHT31;58309;45.292;11.820;2023-01-06T17:10:20;9.34;90.97
67722;SHT31;58309;45.292;11.820;2023-01-06T17:13:02;9.31;91.06
67722;SHT31;58309;45.292;11.820;2023-01-06T17:15:54;9.30;91.03
67722;SHT31;58309;45.292;11.820;2023-01-06T17:18:29;9.28;91.03
67722;SHT31;58309;45.292;11.820;2023-01-06T17:21:13;9.27;90.93
67722;SHT31;58309;45.292;11.820;2023-01-06T17:23:49;9.27;91.00
67722;SHT31;58309;45.292;11.820;2023-01-06T17:26:17;9.24;91.05
67722;SHT31;58309;45.292;11.820;2023-01-06T17:28:44;9.26;91.83
67722;SHT31;58309;45.292;11.820;2023-01-06T17:31:32;9.23;91.75
67722;SHT31;58309;45.292;11.820;2023-01-06T17:36:40;9.19;91.59
67722;SHT31;58309;45.292;11.820;2023-01-06T17:39:33;9.16;91.54
67722;SHT31;58309;45.292;11.820;2023-01-06T17:44:37;9.17;91.36
67722;SHT31;58309;45.292;11.820;2023-01-06T17:49:56;9.19;92.94
67722;SHT31;58309;45.292;11.820;2023-01-06T17:52:35;9.17;92.36
67722;SHT31;58309;45.292;11.820;2023-01-06T17:57:54;9.14;91.89
67722;SHT31;58309;45.292;11.820;2023-01-06T18:00:32;9.14;91.86
67722;SHT31;58309;45.292;11.820;2023-01-06T18:03:03;9.17;91.89
67722;SHT31;58309;45.292;11.820;2023-01-06T18:10:36;9.14;92.23
67722;SHT31;58309;45.292;11.820;2023-01-06T18:13:35;9.16;92.10
67722;SHT31;58309;45.292;11.820;2023-01-06T18:16:07;9.11;92.11
67722;SHT31;58309;45.292;11.820;2023-01-06T18:18:38;9.11;91.97
67722;SHT31;58309;45.292;11.820;2023-01-06T18:21:51;9.11;93.11
67722;SHT31;58309;45.292;11.820;2023-01-06T18:24:14;9.10;92.57
67722;SHT31;58309;45.292;11.820;2023-01-06T18:26:45;9.09;92.60
67722;SHT31;58309;45.292;11.820;2023-01-06T18:29:18;9.10;92.49
67722;SHT31;58309;45.292;11.820;2023-01-06T18:31:47;9.07;92.42
67722;SHT31;58309;45.292;11.820;2023-01-06T18:36:53;9.06;92.98
67722;SHT31;58309;45.292;11.820;2023-01-06T18:39:23;9.04;93.27